sensor_id;sensor_type;location;lat;lon;timestamp;pressure;altitude;pressure_sealevel;temperature;humidity
7309;BME280;3695;53.330;9.876;2023-02-10T00:02:15;104716.31;;;3.13;100.00
7309;BME280;3695;53.330;9.876;2023-02-10T00:04:41;104738.78;;;3.10;100.00
7309;BME280;3695;53.330;9.876;2023-02-10T00:07:07;104756.16;;;3.02;100.00
7309;BME280;3695;53.330;9.876;2023-02-10T00:09:34;104782.09;;;3.01;100.00
7309;BME280;3695;53.330;9.876;2023-02-10T00:12:02;104801.66;;;3.03;100.00
7309;BME280;3695;53.330;9.876;2023-02-10T00:14:29;104810.94;;;2.96;100.00
7309;BME280;3695;53.330;9.876;2023-02-10T00:16:56;104836.94;;;2.94;100.00
7309;BME280;3695;53.330;9.876;2023-02-10T00:19:24;104872.44;;;2.99;100.00
7309;BME280;3695;53.330;9.876;2023-02-10T00:21:51;104895.53;;;3.02;100.00
7309;BME280;3695;53.330;9.876;2023-02-10T00:24:19;104916.66;;;3.09;100.00
7309;BME280;3695;53.330;9.876;2023-02-10T00:26:45;104937.88;;;3.14;100.00
7309;BME280;3695;53.330;9.876;2023-02-10T00:29:13;104941.50;;;3.13;100.00
7309;BME280;3695;53.330;9.876;2023-02-10T00:31:40;104947.88;;;3.10;100.00
7309;BME280;3695;53.330;9.876;2023-02-10T00:34:08;104962.22;;;3.09;100.00
7309;BME280;3695;53.330;9.876;2023-02-10T00:36:35;104969.06;;;3.16;100.00
7309;BME280;3695;53.330;9.876;2023-02-10T00:39:02;104984.19;;;3.17;100.00
7309;BME280;3695;53.330;9.876;2023-02-10T00:41:29;104983.25;;;3.19;100.00
7309;BME280;3695;53.330;9.876;2023-02-10T00:43:55;104987.00;;;3.14;100.00
7309;BME280;3695;53.330;9.876;2023-02-10T00:46:23;105011.28;;;3.11;100.00
7309;BME280;3695;53.330;9.876;2023-02-10T00:48:50;105043.13;;;3.19;100.00
7309;BME280;3695;53.330;9.876;2023-02-10T00:51:17;105070.81;;;3.20;100.00
7309;BME280;3695;53.330;9.876;2023-02-10T00:53:44;105075.34;;;3.17;100.00
7309;BME280;3695;53.330;9.876;2023-02-10T00:56:11;105101.38;;;3.15;100.00
7309;BME280;3695;53.330;9.876;2023-02-10T00:58:37;105122.44;;;3.25;100.00
7309;BME280;3695;53.330;9.876;2023-02-10T01:01:04;105132.34;;;3.23;100.00
7309;BME280;3695;53.330;9.876;2023-02-10T01:03:32;105157.34;;;3.23;100.00
7309;BME280;3695;53.330;9.876;2023-02-10T01:05:59;105178.88;;;3.22;100.00
7309;BME280;3695;53.330;9.876;2023-02-10T01:08:26;105205.44;;;3.28;100.00
7309;BME280;3695;53.330;9.876;2023-02-10T01:10:58;105225.84;;;3.32;100.00
7309;BME280;3695;53.330;9.876;2023-02-10T01:13:24;105219.97;;;3.22;100.00
7309;BME280;3695;53.330;9.876;2023-02-10T01:15:51;105239.97;;;3.13;100.00
7309;BME280;3695;53.330;9.876;2023-02-10T01:18:17;105283.25;;;3.26;100.00
7309;BME280;3695;53.330;9.876;2023-02-10T01:20:45;105292.94;;;3.30;100.00
7309;BME280;3695;53.330;9.876;2023-02-10T01:23:11;105306.53;;;3.26;100.00
7309;BME280;3695;53.330;9.876;2023-02-10T01:25:38;105318.72;;;3.34;100.00
7309;BME280;3695;53.330;9.876;2023-02-10T01:28:06;105326.72;;;3.36;100.00
7309;BME280;3695;53.330;9.876;2023-02-10T01:30:33;105345.38;;;3.39;100.00
7309;BME280;3695;53.330;9.876;2023-02-10T01:32:59;105361.34;;;3.42;100.00
7309;BME280;3695;53.330;9.876;2023-02-10T01:35:26;105356.28;;;3.34;100.00
7309;BME280;3695;53.330;9.876;2023-02-10T01:37:54;105357.97;;;3.37;100.00
7309;BME280;3695;53.330;9.876;2023-02-10T01:40:21;105372.09;;;3.42;100.00
7309;BME280;3695;53.330;9.876;2023-02-10T01:42:48;105378.75;;;3.30;100.00
7309;BME280;3695;53.330;9.876;2023-02-10T01:45:18;105424.75;;;3.44;100.00
7309;BME280;3695;53.330;9.876;2023-02-10T01:47:46;105433.53;;;3.48;100.00
7309;BME280;3695;53.330;9.876;2023-02-10T01:50:14;105428.41;;;3.42;100.00
7309;BME280;3695;53.330;9.876;2023-02-10T01:52:42;105459.31;;;3.52;100.00
7309;BME280;3695;53.330;9.876;2023-02-10T01:55:13;105475.47;;;3.51;100.00
7309;BME280;3695;53.330;9.876;2023-02-10T01:57:42;105483.59;;;3.49;100.00
7309;BME280;3695;53.330;9.876;2023-02-10T02:00:11;105504.47;;;3.64;100.00
7309;BME280;3695;53.330;9.876;2023-02-10T02:02:38;105494.09;;;3.55;100.00
7309;BME280;3695;53.330;9.876;2023-02-10T02:05:21;105516.25;;;3.60;100.00
7309;BME280;3695;53.330;9.876;2023-02-10T02:07:48;105537.44;;;3.68;100.00
7309;BME280;3695;53.330;9.876;2023-02-10T02:10:16;105547.28;;;3.67;100.00
7309;BME280;3695;53.330;9.876;2023-02-10T02:12:48;105541.94;;;3.67;100.00
7309;BME280;3695;53.330;9.876;2023-02-10T02:15:27;105542.28;;;3.58;100.00
7309;BME280;3695;53.330;9.876;2023-02-10T02:18:02;105541.44;;;3.56;100.00
7309;BME280;3695;53.330;9.876;2023-02-10T02:21:02;105561.69;;;3.65;100.00
7309;BME280;3695;53.330;9.876;2023-02-10T02:23:49;105549.50;;;3.56;100.00
7309;BME280;3695;53.330;9.876;2023-02-10T02:26:35;105562.81;;;3.59;100.00
7309;BME280;3695;53.330;9.876;2023-02-10T02:29:22;105575.28;;;3.60;100.00
7309;BME280;3695;53.330;9.876;2023-02-10T02:31:59;105569.16;;;3.57;100.00
7309;BME280;3695;53.330;9.876;2023-02-10T02:34:33;105593.97;;;3.63;100.00
7309;BME280;3695;53.330;9.876;2023-02-10T02:37:05;105601.78;;;3.69;100.00
7309;BME280;3695;53.330;9.876;2023-02-10T02:39:33;105593.75;;;3.69;100.00
7309;BME280;3695;53.330;9.876;2023-02-10T02:42:15;105589.31;;;3.68;100.00
7309;BME280;3695;53.330;9.876;2023-02-10T02:44:42;105594.78;;;3.65;100.00
7309;BME280;3695;53.330;9.876;2023-02-10T02:47:17;105574.41;;;3.60;100.00
7309;BME280;3695;53.330;9.876;2023-02-10T02:49:52;105583.94;;;3.68;100.00
7309;BME280;3695;53.330;9.876;2023-02-10T02:52:26;105574.06;;;3.69;100.00
7309;BME280;3695;53.330;9.876;2023-02-10T02:54:59;105570.69;;;3.64;100.00
7309;BME280;3695;53.330;9.876;2023-02-10T02:57:36;105569.69;;;3.66;100.00
7309;BME280;3695;53.330;9.876;2023-02-10T03:00:10;105573.31;;;3.65;100.00
7309;BME280;3695;53.330;9.876;2023-02-10T03:02:40;105573.44;;;3.62;100.00
7309;BME280;3695;53.330;9.876;2023-02-10T03:05:07;105563.16;;;3.73;100.00
7309;BME280;3695;53.330;9.876;2023-02-10T03:07:33;105557.38;;;3.86;100.00
7309;BME280;3695;53.330;9.876;2023-02-10T03:10:00;105535.72;;;3.90;100.00
7309;BME280;3695;53.330;9.876;2023-02-10T03:12:26;105488.19;;;3.69;100.00
7309;BME280;3695;53.330;9.876;2023-02-10T03:14:53;105492.91;;;3.62;100.00
7309;BME280;3695;53.330;9.876;2023-02-10T03:17:19;105526.75;;;3.66;100.00
7309;BME280;3695;53.330;9.876;2023-02-10T03:19:47;105544.72;;;3.64;100.00
7309;BME280;3695;53.330;9.876;2023-02-10T03:22:14;105547.63;;;3.58;100.00
7309;BME280;3695;53.330;9.876;2023-02-10T03:24:40;105590.78;;;3.52;100.00
7309;BME280;3695;53.330;9.876;2023-02-10T03:27:06;105631.91;;;3.53;100.00
7309;BME280;3695;53.330;9.876;2023-02-10T03:29:33;105657.75;;;3.55;100.00
7309;BME280;3695;53.330;9.876;2023-02-10T03:32:00;105672.22;;;3.51;100.00
7309;BME280;3695;53.330;9.876;2023-02-10T03:34:28;105708.28;;;3.69;100.00
7309;BME280;3695;53.330;9.876;2023-02-10T03:36:56;105673.44;;;3.67;100.00
7309;BME280;3695;53.330;9.876;2023-02-10T03:39:23;105679.47;;;3.74;100.00
7309;BME280;3695;53.330;9.876;2023-02-10T03:41:49;105676.94;;;3.69;100.00
7309;BME280;3695;53.330;9.876;2023-02-10T03:44:18;105692.13;;;3.70;100.00
7309;BME280;3695;53.330;9.876;2023-02-10T03:46:44;105705.19;;;3.55;100.00
7309;BME280;3695;53.330;9.876;2023-02-10T03:49:11;105759.94;;;3.75;100.00
7309;BME280;3695;53.330;9.876;2023-02-10T03:51:37;105752.19;;;3.66;100.00
7309;BME280;3695;53.330;9.876;2023-02-10T03:54:05;105771.75;;;3.70;100.00
7309;BME280;3695;53.330;9.876;2023-02-10T03:56:32;105797.78;;;3.68;100.00
7309;BME280;3695;53.330;9.876;2023-02-10T03:59:00;105813.34;;;3.57;100.00
7309;BME280;3695;53.330;9.876;2023-02-10T04:01:26;105846.44;;;3.57;100.00
7309;BME280;3695;53.330;9.876;2023-02-10T04:03:53;105866.16;;;3.56;100.00
7309;BME280;3695;53.330;9.876;2023-02-10T04:06:19;105879.84;;;3.47;100.00
7309;BME280;3695;53.330;9.876;2023-02-10T04:08:46;105951.81;;;3.62;100.00
7309;BME280;3695;53.330;9.876;2023-02-10T04:11:14;105965.53;;;3.53;100.00
7309;BME280;3695;53.330;9.876;2023-02-10T04:13:41;105989.72;;;3.52;100.00
7309;BME280;3695;53.330;9.876;2023-02-10T04:16:09;106012.16;;;3.49;100.00
7309;BME280;3695;53.330;9.876;2023-02-10T04:18:37;106029.34;;;3.42;100.00
7309;BME280;3695;53.330;9.876;2023-02-10T04:21:05;106078.22;;;3.53;100.00
7309;BME280;3695;53.330;9.876;2023-02-10T04:23:32;106110.44;;;3.53;100.00
7309;BME280;3695;53.330;9.876;2023-02-10T04:25:59;106134.59;;;3.53;100.00
7309;BME280;3695;53.330;9.876;2023-02-10T04:28:26;106155.47;;;3.42;100.00
7309;BME280;3695;53.330;9.876;2023-02-10T04:30:55;106196.47;;;3.47;100.00
7309;BME280;3695;53.330;9.876;2023-02-10T04:33:24;106246.38;;;3.54;100.00
7309;BME280;3695;53.330;9.876;2023-02-10T04:35:51;106260.03;;;3.45;100.00
7309;BME280;3695;53.330;9.876;2023-02-10T04:38:18;106298.31;;;3.52;100.00
7309;BME280;3695;53.330;9.876;2023-02-10T04:40:44;106309.31;;;3.41;100.00
7309;BME280;3695;53.330;9.876;2023-02-10T04:43:11;106385.13;;;3.51;100.00
7309;BME280;3695;53.330;9.876;2023-02-10T04:45:39;106433.31;;;3.55;100.00
7309;BME280;3695;53.330;9.876;2023-02-10T04:48:06;106460.25;;;3.51;100.00
7309;BME280;3695;53.330;9.876;2023-02-10T04:50:33;106494.16;;;3.55;100.00
7309;BME280;3695;53.330;9.876;2023-02-10T04:53:01;106513.03;;;3.52;100.00
7309;BME280;3695;53.330;9.876;2023-02-10T04:55:28;106544.25;;;3.56;100.00
7309;BME280;3695;53.330;9.876;2023-02-10T04:57:54;106556.00;;;3.50;100.00
7309;BME280;3695;53.330;9.876;2023-02-10T05:00:21;106581.91;;;3.51;100.00
7309;BME280;3695;53.330;9.876;2023-02-10T05:02:49;106604.50;;;3.39;100.00
7309;BME280;3695;53.330;9.876;2023-02-10T05:05:15;106658.03;;;3.47;100.00
7309;BME280;3695;53.330;9.876;2023-02-10T05:07:42;106704.47;;;3.52;100.00
7309;BME280;3695;53.330;9.876;2023-02-10T05:10:08;106723.34;;;3.47;100.00
7309;BME280;3695;53.330;9.876;2023-02-10T05:12:35;106767.09;;;3.53;100.00
7309;BME280;3695;53.330;9.876;2023-02-10T05:15:02;106787.78;;;3.44;100.00
7309;BME280;3695;53.330;9.876;2023-02-10T05:17:29;106794.13;;;3.40;100.00
7309;BME280;3695;53.330;9.876;2023-02-10T05:19:57;106811.22;;;3.33;100.00
7309;BME280;3695;53.330;9.876;2023-02-10T05:22:23;106835.25;;;3.41;100.00
7309;BME280;3695;53.330;9.876;2023-02-10T05:24:54;106856.72;;;3.41;100.00
7309;BME280;3695;53.330;9.876;2023-02-10T05:27:21;106875.47;;;3.44;100.00
7309;BME280;3695;53.330;9.876;2023-02-10T05:29:48;106857.72;;;3.34;100.00
7309;BME280;3695;53.330;9.876;2023-02-10T05:32:14;106868.31;;;3.44;100.00
7309;BME280;3695;53.330;9.876;2023-02-10T05:34:41;106875.53;;;3.41;100.00
7309;BME280;3695;53.330;9.876;2023-02-10T05:37:08;106880.13;;;3.30;100.00
7309;BME280;3695;53.330;9.876;2023-02-10T05:39:35;106928.28;;;3.42;100.00
7309;BME280;3695;53.330;9.876;2023-02-10T05:42:01;106924.81;;;3.34;100.00
7309;BME280;3695;53.330;9.876;2023-02-10T05:44:29;106965.75;;;3.50;100.00
7309;BME280;3695;53.330;9.876;2023-02-10T05:46:56;106956.94;;;3.40;100.00
7309;BME280;3695;53.330;9.876;2023-02-10T05:49:22;106994.38;;;3.49;100.00
7309;BME280;3695;53.330;9.876;2023-02-10T05:51:49;107014.19;;;3.39;100.00
7309;BME280;3695;53.330;9.876;2023-02-10T05:54:17;107056.16;;;3.46;100.00
7309;BME280;3695;53.330;9.876;2023-02-10T05:56:44;107059.00;;;3.34;100.00
7309;BME280;3695;53.330;9.876;2023-02-10T05:59:12;107092.91;;;3.41;100.00
7309;BME280;3695;53.330;9.876;2023-02-10T06:01:40;107126.81;;;3.50;100.00
7309;BME280;3695;53.330;9.876;2023-02-10T06:04:06;107140.22;;;3.50;100.00
7309;BME280;3695;53.330;9.876;2023-02-10T06:06:32;107135.81;;;3.44;100.00
7309;BME280;3695;53.330;9.876;2023-02-10T06:08:59;107147.47;;;3.40;100.00
7309;BME280;3695;53.330;9.876;2023-02-10T06:11:27;107168.03;;;3.41;100.00
7309;BME280;3695;53.330;9.876;2023-02-10T06:13:53;107189.41;;;3.52;100.00
7309;BME280;3695;53.330;9.876;2023-02-10T06:16:20;107189.53;;;3.38;100.00
7309;BME280;3695;53.330;9.876;2023-02-10T06:18:46;107220.81;;;3.43;100.00
7309;BME280;3695;53.330;9.876;2023-02-10T06:21:13;107217.31;;;3.29;100.00
7309;BME280;3695;53.330;9.876;2023-02-10T06:23:39;107283.53;;;3.27;100.00
7309;BME280;3695;53.330;9.876;2023-02-10T06:26:06;107325.59;;;3.24;100.00
7309;BME280;3695;53.330;9.876;2023-02-10T06:28:34;107377.44;;;3.27;100.00
7309;BME280;3695;53.330;9.876;2023-02-10T06:31:00;107445.34;;;3.46;100.00
7309;BME280;3695;53.330;9.876;2023-02-10T06:33:27;107412.38;;;3.20;100.00
7309;BME280;3695;53.330;9.876;2023-02-10T06:35:54;107465.09;;;3.30;100.00
7309;BME280;3695;53.330;9.876;2023-02-10T06:38:20;107490.16;;;3.27;100.00
7309;BME280;3695;53.330;9.876;2023-02-10T06:40:47;107539.34;;;3.31;100.00
7309;BME280;3695;53.330;9.876;2023-02-10T06:43:13;107562.63;;;3.32;100.00
7309;BME280;3695;53.330;9.876;2023-02-10T06:45:41;107570.66;;;3.27;100.00
7309;BME280;3695;53.330;9.876;2023-02-10T06:48:08;107568.88;;;3.22;100.00
7309;BME280;3695;53.330;9.876;2023-02-10T06:50:35;107603.75;;;3.26;100.00
7309;BME280;3695;53.330;9.876;2023-02-10T06:53:03;107604.66;;;3.21;100.00
7309;BME280;3695;53.330;9.876;2023-02-10T06:55:30;107664.59;;;3.41;100.00
7309;BME280;3695;53.330;9.876;2023-02-10T06:57:58;107665.47;;;3.31;100.00
7309;BME280;3695;53.330;9.876;2023-02-10T07:00:24;107689.63;;;3.26;100.00
7309;BME280;3695;53.330;9.876;2023-02-10T07:02:52;107719.16;;;3.22;100.00
7309;BME280;3695;53.330;9.876;2023-02-10T07:05:19;107793.44;;;3.44;100.00
7309;BME280;3695;53.330;9.876;2023-02-10T07:07:45;107786.28;;;3.41;100.00
7309;BME280;3695;53.330;9.876;2023-02-10T07:10:12;107761.19;;;3.29;100.00
7309;BME280;3695;53.330;9.876;2023-02-10T07:12:38;107748.66;;;3.20;100.00
7309;BME280;3695;53.330;9.876;2023-02-10T07:15:05;107783.56;;;3.19;100.00
7309;BME280;3695;53.330;9.876;2023-02-10T07:17:32;107811.28;;;3.16;100.00
7309;BME280;3695;53.330;9.876;2023-02-10T07:19:59;107825.59;;;3.10;100.00
7309;BME280;3695;53.330;9.876;2023-02-10T07:22:26;107885.53;;;3.22;100.00
7309;BME280;3695;53.330;9.876;2023-02-10T07:24:52;107913.25;;;3.22;100.00
7309;BME280;3695;53.330;9.876;2023-02-10T07:27:19;107915.03;;;3.15;100.00
7309;BME280;3695;53.330;9.876;2023-02-10T07:29:45;107905.16;;;3.05;100.00
7309;BME280;3695;53.330;9.876;2023-02-10T07:32:12;107958.00;;;3.22;100.00
7309;BME280;3695;53.330;9.876;2023-02-10T07:34:38;107983.94;;;3.23;100.00
7309;BME280;3695;53.330;9.876;2023-02-10T07:37:07;108006.31;;;3.26;100.00
7309;BME280;3695;53.330;9.876;2023-02-10T07:39:34;108003.63;;;3.28;100.00
7309;BME280;3695;53.330;9.876;2023-02-10T07:42:00;107969.63;;;3.28;100.00
7309;BME280;3695;53.330;9.876;2023-02-10T07:44:27;107949.06;;;3.24;100.00
7309;BME280;3695;53.330;9.876;2023-02-10T07:46:53;107958.91;;;3.27;100.00
7309;BME280;3695;53.330;9.876;2023-02-10T07:49:20;107941.88;;;3.20;100.00
7309;BME280;3695;53.330;9.876;2023-02-10T07:51:46;107910.56;;;3.14;100.00
7309;BME280;3695;53.330;9.876;2023-02-10T07:54:14;107975.06;;;3.33;100.00
7309;BME280;3695;53.330;9.876;2023-02-10T07:56:41;107949.09;;;3.32;100.00
7309;BME280;3695;53.330;9.876;2023-02-10T07:59:07;107929.44;;;3.39;100.00
7309;BME280;3695;53.330;9.876;2023-02-10T08:01:34;107868.53;;;3.27;100.00
7309;BME280;3695;53.330;9.876;2023-02-10T08:04:03;107892.75;;;3.41;100.00
7309;BME280;3695;53.330;9.876;2023-02-10T08:06:29;107834.59;;;3.37;100.00
7309;BME280;3695;53.330;9.876;2023-02-10T08:08:55;107828.34;;;3.44;100.00
7309;BME280;3695;53.330;9.876;2023-02-10T08:11:24;107783.59;;;3.46;100.00
7309;BME280;3695;53.330;9.876;2023-02-10T08:13:50;107741.53;;;3.42;100.00
7309;BME280;3695;53.330;9.876;2023-02-10T08:16:16;107712.00;;;3.51;100.00
7309;BME280;3695;53.330;9.876;2023-02-10T08:18:43;107623.44;;;3.43;100.00
7309;BME280;3695;53.330;9.876;2023-02-10T08:21:09;107541.16;;;3.24;100.00
7309;BME280;3695;53.330;9.876;2023-02-10T08:23:36;107590.31;;;3.41;100.00
7309;BME280;3695;53.330;9.876;2023-02-10T08:26:03;107579.59;;;3.40;100.00
7309;BME280;3695;53.330;9.876;2023-02-10T08:28:34;107621.56;;;3.62;100.00
7309;BME280;3695;53.330;9.876;2023-02-10T08:31:01;107540.19;;;3.48;100.00
7309;BME280;3695;53.330;9.876;2023-02-10T08:33:27;107517.81;;;3.52;100.00
7309;BME280;3695;53.330;9.876;2023-02-10T08:35:55;107482.97;;;3.31;100.00
7309;BME280;3695;53.330;9.876;2023-02-10T08:38:22;107515.19;;;3.31;100.00
7309;BME280;3695;53.330;9.876;2023-02-10T08:40:54;107579.53;;;3.55;100.00
7309;BME280;3695;53.330;9.876;2023-02-10T08:43:20;107583.06;;;3.69;100.00
7309;BME280;3695;53.330;9.876;2023-02-10T08:45:48;107478.47;;;3.45;100.00
7309;BME280;3695;53.330;9.876;2023-02-10T08:48:14;107502.53;;;3.63;100.00
7309;BME280;3695;53.330;9.876;2023-02-10T08:50:41;107471.22;;;3.62;100.00
7309;BME280;3695;53.330;9.876;2023-02-10T08:53:07;107457.75;;;3.65;100.00
7309;BME280;3695;53.330;9.876;2023-02-10T08:55:35;107430.06;;;3.59;100.00
7309;BME280;3695;53.330;9.876;2023-02-10T08:58:01;107415.81;;;3.47;100.00
7309;BME280;3695;53.330;9.876;2023-02-10T09:00:28;107427.41;;;3.56;100.00
7309;BME280;3695;53.330;9.876;2023-02-10T09:02:56;107422.00;;;3.60;100.00
7309;BME280;3695;53.330;9.876;2023-02-10T09:05:22;107403.19;;;3.63;100.00
7309;BME280;3695;53.330;9.876;2023-02-10T09:07:49;107346.91;;;3.51;100.00
7309;BME280;3695;53.330;9.876;2023-02-10T09:10:16;107382.59;;;3.62;100.00
7309;BME280;3695;53.330;9.876;2023-02-10T09:12:43;107352.16;;;3.66;100.00
7309;BME280;3695;53.330;9.876;2023-02-10T09:15:10;107361.06;;;3.68;100.00
7309;BME280;3695;53.330;9.876;2023-02-10T09:17:36;107294.19;;;3.42;100.00
7309;BME280;3695;53.330;9.876;2023-02-10T09:20:05;107361.00;;;3.76;100.00
7309;BME280;3695;53.330;9.876;2023-02-10T09:22:32;107331.44;;;3.84;100.00
7309;BME280;3695;53.330;9.876;2023-02-10T09:24:58;107286.63;;;3.89;100.00
7309;BME280;3695;53.330;9.876;2023-02-10T09:27:25;107241.97;;;3.78;100.00
7309;BME280;3695;53.330;9.876;2023-02-10T09:29:52;107210.66;;;3.73;100.00
7309;BME280;3695;53.330;9.876;2023-02-10T09:32:18;107182.94;;;3.71;100.00
7309;BME280;3695;53.330;9.876;2023-02-10T09:34:44;107183.66;;;3.90;100.00
7309;BME280;3695;53.330;9.876;2023-02-10T09:37:12;107169.28;;;3.94;100.00
7309;BME280;3695;53.330;9.876;2023-02-10T09:39:39;107097.94;;;3.68;100.00
7309;BME280;3695;53.330;9.876;2023-02-10T09:42:09;107143.38;;;3.88;100.00
7309;BME280;3695;53.330;9.876;2023-02-10T09:44:44;107111.00;;;3.99;100.00
7309;BME280;3695;53.330;9.876;2023-02-10T09:47:26;107051.94;;;3.97;100.00
7309;BME280;3695;53.330;9.876;2023-02-10T09:50:13;107002.78;;;3.91;100.00
7309;BME280;3695;53.330;9.876;2023-02-10T09:52:57;107004.28;;;4.10;100.00
7309;BME280;3695;53.330;9.876;2023-02-10T09:55:30;106979.75;;;4.33;100.00
7309;BME280;3695;53.330;9.876;2023-02-10T09:58:01;106874.31;;;4.16;100.00
7309;BME280;3695;53.330;9.876;2023-02-10T10:00:33;106843.06;;;4.10;100.00
7309;BME280;3695;53.330;9.876;2023-02-10T10:03:04;106864.16;;;4.34;100.00
7309;BME280;3695;53.330;9.876;2023-02-10T10:05:39;106809.59;;;4.29;100.00
7309;BME280;3695;53.330;9.876;2023-02-10T10:08:16;106814.81;;;4.37;100.00
7309;BME280;3695;53.330;9.876;2023-02-10T10:10:45;106794.72;;;4.56;100.00
7309;BME280;3695;53.330;9.876;2023-02-10T10:13:14;106746.69;;;4.81;100.00
7309;BME280;3695;53.330;9.876;2023-02-10T10:15:47;106630.28;;;4.76;100.00
7309;BME280;3695;53.330;9.876;2023-02-10T10:18:21;106573.13;;;5.02;100.00
7309;BME280;3695;53.330;9.876;2023-02-10T10:20:59;106487.75;;;4.76;100.00
7309;BME280;3695;53.330;9.876;2023-02-10T10:23:40;106416.81;;;4.80;100.00
7309;BME280;3695;53.330;9.876;2023-02-10T10:26:16;106343.19;;;4.84;100.00
7309;BME280;3695;53.330;9.876;2023-02-10T10:28:58;106319.19;;;5.06;100.00
7309;BME280;3695;53.330;9.876;2023-02-10T10:31:29;106297.63;;;5.63;100.00
7309;BME280;3695;53.330;9.876;2023-02-10T10:33:59;106144.09;;;5.40;100.00
7309;BME280;3695;53.330;9.876;2023-02-10T10:36:33;106044.44;;;5.42;100.00
7309;BME280;3695;53.330;9.876;2023-02-10T10:39:09;105982.25;;;5.73;100.00
7309;BME280;3695;53.330;9.876;2023-02-10T10:41:38;105871.34;;;5.85;100.00
7309;BME280;3695;53.330;9.876;2023-02-10T10:44:04;105792.88;;;6.14;100.00
7309;BME280;3695;53.330;9.876;2023-02-10T10:46:35;105659.59;;;6.03;100.00
7309;BME280;3695;53.330;9.876;2023-02-10T10:49:05;105604.66;;;5.86;100.00
7309;BME280;3695;53.330;9.876;2023-02-10T10:51:32;105591.25;;;5.85;100.00
7309;BME280;3695;53.330;9.876;2023-02-10T10:54:00;105562.78;;;6.18;100.00
7309;BME280;3695;53.330;9.876;2023-02-10T10:56:33;105460.38;;;5.81;100.00
7309;BME280;3695;53.330;9.876;2023-02-10T10:59:12;105440.16;;;5.91;100.00
7309;BME280;3695;53.330;9.876;2023-02-10T11:01:41;105414.81;;;5.95;100.00
7309;BME280;3695;53.330;9.876;2023-02-10T11:04:12;105377.59;;;6.03;100.00
7309;BME280;3695;53.330;9.876;2023-02-10T11:06:40;105356.41;;;6.49;100.00
7309;BME280;3695;53.330;9.876;2023-02-10T11:09:21;105257.81;;;6.45;100.00
7309;BME280;3695;53.330;9.876;2023-02-10T11:11:50;105215.00;;;6.39;100.00
7309;BME280;3695;53.330;9.876;2023-02-10T11:14:20;105174.84;;;6.50;100.00
7309;BME280;3695;53.330;9.876;2023-02-10T11:16:49;105100.41;;;6.31;100.00
7309;BME280;3695;53.330;9.876;2023-02-10T11:19:18;105095.00;;;6.31;100.00
7309;BME280;3695;53.330;9.876;2023-02-10T11:21:45;105075.19;;;6.17;100.00
7309;BME280;3695;53.330;9.876;2023-02-10T11:24:18;105088.75;;;6.15;100.00
7309;BME280;3695;53.330;9.876;2023-02-10T11:26:55;105084.53;;;6.10;100.00
7309;BME280;3695;53.330;9.876;2023-02-10T11:29:22;105070.81;;;6.14;100.00
7309;BME280;3695;53.330;9.876;2023-02-10T11:31:51;105073.44;;;6.16;100.00
7309;BME280;3695;53.330;9.876;2023-02-10T11:34:20;105063.69;;;6.13;100.00
7309;BME280;3695;53.330;9.876;2023-02-10T11:36:48;105054.59;;;6.31;100.00
7309;BME280;3695;53.330;9.876;2023-02-10T11:39:20;105009.03;;;6.43;100.00
7309;BME280;3695;53.330;9.876;2023-02-10T11:41:48;104983.56;;;6.48;100.00
7309;BME280;3695;53.330;9.876;2023-02-10T11:44:27;104925.72;;;6.54;100.00
7309;BME280;3695;53.330;9.876;2023-02-10T11:46:55;104866.13;;;6.58;100.00
7309;BME280;3695;53.330;9.876;2023-02-10T11:49:22;104832.00;;;6.73;100.00
7309;BME280;3695;53.330;9.876;2023-02-10T11:51:53;104778.47;;;6.67;100.00
7309;BME280;3695;53.330;9.876;2023-02-10T11:54:20;104759.19;;;6.87;100.00
7309;BME280;3695;53.330;9.876;2023-02-10T11:56:56;104706.59;;;6.94;100.00
7309;BME280;3695;53.330;9.876;2023-02-10T11:59:48;104679.34;;;6.85;100.00
7309;BME280;3695;53.330;9.876;2023-02-10T12:02:23;104642.47;;;6.57;100.00
7309;BME280;3695;53.330;9.876;2023-02-10T12:05:01;104630.38;;;6.64;100.00
7309;BME280;3695;53.330;9.876;2023-02-10T12:07:40;104620.28;;;6.94;100.00
7309;BME280;3695;53.330;9.876;2023-02-10T12:10:14;104591.72;;;7.05;100.00
7309;BME280;3695;53.330;9.876;2023-02-10T12:12:47;104540.63;;;6.89;100.00
7309;BME280;3695;53.330;9.876;2023-02-10T12:15:33;104502.00;;;6.88;100.00
7309;BME280;3695;53.330;9.876;2023-02-10T12:18:13;104496.72;;;7.14;100.00
7309;BME280;3695;53.330;9.876;2023-02-10T12:20:50;104457.00;;;7.29;100.00
7309;BME280;3695;53.330;9.876;2023-02-10T12:23:43;104431.06;;;7.01;100.00
7309;BME280;3695;53.330;9.876;2023-02-10T12:26:18;104412.94;;;7.03;100.00
7309;BME280;3695;53.330;9.876;2023-02-10T12:28:57;104406.06;;;7.11;100.00
7309;BME280;3695;53.330;9.876;2023-02-10T12:31:36;104380.78;;;7.25;100.00
7309;BME280;3695;53.330;9.876;2023-02-10T12:34:15;104382.75;;;7.23;100.00
7309;BME280;3695;53.330;9.876;2023-02-10T12:36:49;104372.91;;;7.22;100.00
7309;BME280;3695;53.330;9.876;2023-02-10T12:39:22;104346.69;;;6.99;100.00
7309;BME280;3695;53.330;9.876;2023-02-10T12:41:58;104324.88;;;7.02;100.00
7309;BME280;3695;53.330;9.876;2023-02-10T12:44:36;104309.56;;;7.15;100.00
7309;BME280;3695;53.330;9.876;2023-02-10T12:47:18;104272.94;;;7.36;100.00
7309;BME280;3695;53.330;9.876;2023-02-10T12:49:59;104237.41;;;7.42;100.00
7309;BME280;3695;53.330;9.876;2023-02-10T12:52:31;104191.41;;;7.44;100.00
7309;BME280;3695;53.330;9.876;2023-02-10T12:55:03;104147.75;;;7.50;100.00
7309;BME280;3695;53.330;9.876;2023-02-10T12:57:37;104103.53;;;7.40;100.00
7309;BME280;3695;53.330;9.876;2023-02-10T13:00:11;104095.38;;;7.52;100.00
7309;BME280;3695;53.330;9.876;2023-02-10T13:02:44;104069.25;;;7.53;100.00
7309;BME280;3695;53.330;9.876;2023-02-10T13:05:16;104077.56;;;7.50;100.00
7309;BME280;3695;53.330;9.876;2023-02-10T13:07:48;104062.91;;;7.30;100.00
7309;BME280;3695;53.330;9.876;2023-02-10T13:10:28;104057.59;;;7.17;100.00
7309;BME280;3695;53.330;9.876;2023-02-10T13:12:58;104066.03;;;7.13;100.00
7309;BME280;3695;53.330;9.876;2023-02-10T13:15:28;104063.72;;;7.19;100.00
7309;BME280;3695;53.330;9.876;2023-02-10T13:17:57;104062.50;;;7.00;100.00
7309;BME280;3695;53.330;9.876;2023-02-10T13:20:30;104064.44;;;7.10;100.00
7309;BME280;3695;53.330;9.876;2023-02-10T13:23:13;104063.41;;;7.35;100.00